Time;durP1;ratioP1;P1;durP2;ratioP2;P2;SDS_P1;SDS_P2;PMS_P1;PMS_P2;Temp;Humidity;BMP_temperature;BMP_pressure;BME280_temperature;BME280_humidity;BME280_pressure;Samples;Min_cycle;Max_cycle;Signal;HPM_P1;HPM_P2
2021/12/01 00:00:08;;;;;;;6.90;1.92;;;;;;;6.03;67.61;97544.88;4475405;32;20126;-78
2021/12/01 00:02:34;;;;;;;6.55;2.12;;;;;;;6.01;68.14;97552.78;4473686;32;20107;-76
2021/12/01 00:04:59;;;;;;;7.10;2.22;;;;;;;5.77;69.29;97554.13;4487367;32;20432;-78
2021/12/01 00:07:25;;;;;;;5.85;1.90;;;;;;;5.57;69.96;97548.22;4486629;31;20111;-79
2021/12/01 00:09:51;;;;;;;7.28;2.08;;;;;;;6.01;68.68;97531.87;4502826;31;20349;-81
2021/12/01 00:12:17;;;;;;;6.53;2.00;;;;;;;6.26;67.56;97546.19;4489229;31;20209;-80
2021/12/01 00:14:42;;;;;;;6.72;1.98;;;;;;;6.02;68.32;97553.63;4487851;32;20428;-80
2021/12/01 00:17:11;;;;;;;9.02;2.30;;;;;;;5.70;69.05;97548.38;4487893;32;20084;-79
2021/12/01 00:19:37;;;;;;;6.82;2.03;;;;;;;5.81;69.22;97559.06;4487901;32;20152;-78
2021/12/01 00:22:02;;;;;;;7.70;2.00;;;;;;;5.64;69.80;97554.78;4487969;32;20118;-79
2021/12/01 00:24:28;;;;;;;6.93;2.03;;;;;;;5.90;68.57;97549.91;4487892;32;20088;-79
2021/12/01 00:26:53;;;;;;;6.68;2.05;;;;;;;5.46;69.89;97567.06;4487844;32;20108;-79
2021/12/01 00:29:19;;;;;;;5.10;1.70;;;;;;;5.49;70.22;97569.53;4473626;32;20105;-79
2021/12/01 00:31:44;;;;;;;6.80;2.10;;;;;;;5.75;69.31;97559.41;4488030;32;20111;-79
2021/12/01 00:34:10;;;;;;;4.30;1.50;;;;;;;5.96;68.84;97557.41;4488145;32;20116;-79
2021/12/01 00:36:35;;;;;;;5.55;1.92;;;;;;;6.17;68.33;97584.16;4473965;32;20359;-79
2021/12/01 00:39:01;;;;;;;6.45;1.73;;;;;;;5.94;68.18;97587.16;4488037;32;20101;-79
2021/12/01 00:41:26;;;;;;;6.70;1.70;;;;;;;6.07;67.91;97573.34;4473934;32;20084;-79
2021/12/01 00:43:52;;;;;;;6.65;1.70;;;;;;;5.94;67.73;97581.94;4473846;32;20088;-79
2021/12/01 00:46:25;;;;;;;8.07;1.95;;;;;;;5.80;68.30;97574.88;4473775;32;20159;-80
2021/12/01 00:48:51;;;;;;;6.57;1.80;;;;;;;6.10;67.58;97557.50;4474566;32;20221;-79
2021/12/01 00:51:16;;;;;;;5.40;1.75;;;;;;;5.57;68.94;97583.94;4487907;32;20112;-80
2021/12/01 00:53:43;;;;;;;7.22;2.03;;;;;;;5.58;68.69;97586.47;4486744;32;20088;-79
2021/12/01 00:56:09;;;;;;;8.25;2.10;;;;;;;5.80;68.52;97586.16;4460351;32;20085;-79
2021/12/01 00:58:35;;;;;;;6.15;2.00;;;;;;;6.02;67.94;97587.63;4473401;32;20129;-80
2021/12/01 01:01:02;;;;;;;4.93;1.58;;;;;;;5.94;68.23;97574.94;4473385;32;20115;-80
2021/12/01 01:03:28;;;;;;;5.85;1.60;;;;;;;5.84;67.81;97571.97;4487668;32;20073;-79
2021/12/01 01:05:54;;;;;;;6.47;1.70;;;;;;;5.96;67.57;97582.72;4487664;32;20435;-79
2021/12/01 01:08:19;;;;;;;6.37;1.77;;;;;;;6.11;67.20;97579.25;4473353;32;20112;-79
2021/12/01 01:10:57;;;;;;;5.25;1.65;;;;;;;5.63;68.69;97579.22;4487603;32;20092;-79
2021/12/01 01:16:22;;;;;;;5.20;1.60;;;;;;;5.94;67.53;97590.63;4486660;32;20145;-79
2021/12/01 01:18:52;;;;;;;6.32;1.80;;;;;;;6.13;67.04;97581.81;4486540;32;20173;-78
2021/12/01 01:21:18;;;;;;;5.65;1.67;;;;;;;5.62;69.07;97593.22;4486271;32;20497;-78
2021/12/01 01:23:44;;;;;;;4.40;1.52;;;;;;;5.99;67.64;97601.72;4487558;31;20080;-78
2021/12/01 01:26:13;;;;;;;5.80;1.60;;;;;;;6.31;66.87;97609.50;4486543;32;20123;-79
2021/12/01 01:28:39;;;;;;;5.68;1.70;;;;;;;6.07;67.21;97612.56;4486327;32;20104;-79
2021/12/01 01:31:05;;;;;;;6.45;1.70;;;;;;;6.20;66.74;97606.66;4486348;32;20112;-78
2021/12/01 01:33:31;;;;;;;6.20;1.62;;;;;;;6.35;66.25;97610.19;4487415;31;20084;-78
2021/12/01 01:35:56;;;;;;;6.65;1.60;;;;;;;6.50;65.75;97625.03;4486591;32;20124;-79
2021/12/01 01:38:22;;;;;;;6.32;1.95;;;;;;;6.41;65.85;97623.78;4486498;32;20128;-79
2021/12/01 01:40:47;;;;;;;7.10;1.80;;;;;;;6.31;66.60;97630.44;4487796;31;20096;-79
2021/12/01 01:43:13;;;;;;;5.10;1.48;;;;;;;6.63;65.38;97618.16;4486452;32;20352;-79
2021/12/01 01:45:39;;;;;;;7.43;1.80;;;;;;;6.08;66.93;97626.47;4487717;31;20077;-79
2021/12/01 01:48:10;;;;;;;7.55;2.10;;;;;;;6.56;65.43;97618.59;4487612;31;20093;-79
2021/12/01 01:50:38;;;;;;;4.55;1.62;;;;;;;6.26;66.86;97630.72;4487492;31;20160;-79
2021/12/01 01:53:04;;;;;;;7.03;1.90;;;;;;;6.56;65.94;97616.81;4487130;31;20084;-78
2021/12/01 01:55:31;;;;;;;5.85;1.90;;;;;;;6.34;66.51;97638.13;4487344;31;20069;-79
2021/12/01 01:57:56;;;;;;;5.93;1.85;;;;;;;6.33;65.78;97639.03;4486082;32;20119;-79
2021/12/01 02:00:22;;;;;;;4.47;1.58;;;;;;;6.57;65.26;97634.22;4486128;32;20110;-79
2021/12/01 02:02:48;;;;;;;4.93;1.60;;;;;;;6.32;66.11;97636.50;4487171;32;20345;-79
2021/12/01 02:05:13;;;;;;;5.70;1.55;;;;;;;6.35;65.84;97644.19;4486064;32;20110;-79
2021/12/01 02:07:39;;;;;;;5.32;1.80;;;;;;;6.09;66.46;97634.25;4486069;32;20100;-79
2021/12/01 02:10:05;;;;;;;5.07;1.80;;;;;;;6.09;66.05;97633.41;4487187;32;20092;-79
2021/12/01 02:12:30;;;;;;;5.93;2.00;;;;;;;6.07;66.33;97635.28;4487118;31;20179;-79
2021/12/01 02:14:56;;;;;;;5.90;1.85;;;;;;;5.82;66.82;97640.94;4486048;32;20081;-80
2021/12/01 02:17:22;;;;;;;6.53;1.77;;;;;;;6.13;66.44;97639.31;4486339;32;20100;-79
2021/12/01 02:19:51;;;;;;;5.00;1.60;;;;;;;6.24;66.24;97636.97;4487318;31;20120;-79
2021/12/01 02:22:17;;;;;;;5.32;1.70;;;;;;;6.11;66.52;97628.94;4487238;31;20077;-80
2021/12/01 02:24:46;;;;;;;4.47;1.50;;;;;;;6.23;66.00;97633.47;4473037;32;20144;-79
2021/12/01 02:27:12;;;;;;;4.95;1.50;;;;;;;6.15;66.01;97625.22;4486125;32;20108;-79
2021/12/01 02:29:38;;;;;;;3.80;1.40;;;;;;;6.20;66.09;97625.81;4487466;31;20133;-79
2021/12/01 02:32:03;;;;;;;2.97;1.10;;;;;;;6.26;65.89;97632.50;4487211;31;20076;-78
2021/12/01 02:34:31;;;;;;;3.47;1.35;;;;;;;6.22;65.38;97628.34;4487340;31;20141;-79
2021/12/01 02:36:58;;;;;;;3.37;1.15;;;;;;;6.24;65.87;97637.81;4487350;31;20080;-79
2021/12/01 02:39:24;;;;;;;2.65;1.17;;;;;;;6.16;65.41;97629.53;4485818;32;20455;-79
2021/12/01 02:41:55;;;;;;;3.53;1.20;;;;;;;6.12;65.64;97628.00;4485885;32;20127;-79
2021/12/01 02:44:21;;;;;;;5.53;1.40;;;;;;;6.60;64.00;97641.88;4486935;31;20144;-79
2021/12/01 02:46:47;;;;;;;3.67;1.33;;;;;;;6.41;64.33;97634.25;4485754;32;20115;-79
2021/12/01 02:49:13;;;;;;;3.83;1.00;;;;;;;6.27;65.08;97637.63;4485737;32;20088;-78
2021/12/01 02:51:39;;;;;;;3.25;1.00;;;;;;;6.20;65.30;97635.41;4486724;32;20110;-78
2021/12/01 02:54:06;;;;;;;2.67;0.93;;;;;;;5.94;65.96;97636.84;4485521;32;20130;-79
2021/12/01 02:56:33;;;;;;;2.80;0.90;;;;;;;6.37;64.56;97627.47;4486809;31;20241;-78
2021/12/01 02:59:01;;;;;;;1.70;0.80;;;;;;;6.35;64.70;97631.94;4486886;31;20448;-79
2021/12/01 03:01:26;;;;;;;;;;;;;;;6.43;64.24;97635.00;4487148;31;20430;-79
2021/12/01 03:03:52;;;;;;;2.62;0.98;;;;;;;6.26;64.56;97637.72;4486714;31;19976;-79
2021/12/01 03:06:19;;;;;;;2.03;0.68;;;;;;;6.41;64.12;97634.25;4485481;32;20149;-79
2021/12/01 03:08:46;;;;;;;1.52;0.80;;;;;;;6.22;65.06;97644.88;4486686;31;20163;-79
2021/12/01 03:11:12;;;;;;;2.30;1.02;;;;;;;6.46;64.02;97657.53;4485367;32;20092;-79
2021/12/01 03:13:39;;;;;;;1.30;0.75;;;;;;;6.47;63.68;97640.88;4485515;32;20127;-79
2021/12/01 03:16:05;;;;;;;1.02;0.70;;;;;;;6.28;64.54;97633.25;4484601;32;20092;-79
2021/12/01 03:18:30;;;;;;;2.05;0.68;;;;;;;6.37;64.09;97643.16;4472326;32;20126;-79
2021/12/01 03:20:57;;;;;;;0.45;0.45;;;;;;;6.17;64.85;97652.13;4486479;32;20085;-78
2021/12/01 03:23:23;;;;;;;1.33;0.60;;;;;;;6.28;64.44;97659.41;4485340;32;20460;-79
2021/12/01 03:25:49;;;;;;;1.55;0.50;;;;;;;6.41;63.76;97646.47;4485260;32;20258;-79
2021/12/01 03:28:14;;;;;;;2.17;0.73;;;;;;;6.06;64.63;97664.94;4486664;31;20460;-79
2021/12/01 03:30:40;;;;;;;1.23;0.55;;;;;;;6.47;63.86;97669.66;4486680;31;20085;-79
2021/12/01 03:33:12;;;;;;;1.15;0.65;;;;;;;6.25;64.17;97672.62;4486535;31;20129;-79
2021/12/01 03:35:39;;;;;;;1.52;0.68;;;;;;;6.57;63.92;97677.88;4486670;31;20426;-79
2021/12/01 03:38:04;;;;;;;1.67;0.73;;;;;;;6.30;63.79;97662.78;4485444;32;20100;-79
2021/12/01 03:40:30;;;;;;;2.10;0.70;;;;;;;6.64;63.20;97673.94;4486466;31;20084;-79
2021/12/01 03:42:56;;;;;;;1.87;0.60;;;;;;;6.78;62.59;97679.25;4486465;32;20420;-79
2021/12/01 03:45:21;;;;;;;1.75;0.60;;;;;;;6.70;62.48;97676.22;4486416;31;20092;-79
2021/12/01 03:47:47;;;;;;;1.62;0.60;;;;;;;6.75;62.46;97678.59;4485198;32;20381;-79
2021/12/01 03:50:12;;;;;;;1.40;0.70;;;;;;;6.54;62.98;97671.00;4485224;32;20375;-80
2021/12/01 03:52:38;;;;;;;1.27;0.60;;;;;;;6.75;62.43;97678.59;4484781;32;20108;-80
2021/12/01 03:55:05;;;;;;;1.10;0.60;;;;;;;7.03;61.53;97673.47;4486390;31;20096;-80
2021/12/01 03:57:31;;;;;;;1.70;0.70;;;;;;;6.87;61.82;97672.66;4485177;32;20104;-80
2021/12/01 03:59:56;;;;;;;1.17;0.60;;;;;;;6.83;62.33;97681.59;4484941;32;20519;-80
2021/12/01 04:02:22;;;;;;;0.85;0.50;;;;;;;6.84;62.13;97675.47;4486096;31;20076;-80
2021/12/01 04:04:47;;;;;;;2.12;0.80;;;;;;;6.99;61.75;97677.19;4486110;31;20140;-80
2021/12/01 04:07:13;;;;;;;0.68;0.43;;;;;;;6.82;61.96;97667.69;4484976;32;20096;-81
2021/12/01 04:09:41;;;;;;;1.00;0.40;;;;;;;7.09;61.44;97680.12;4486120;31;20436;-80
2021/12/01 04:12:07;;;;;;;2.62;0.80;;;;;;;6.98;61.48;97683.34;4485618;31;20422;-79
2021/12/01 04:14:32;;;;;;;1.70;0.70;;;;;;;6.98;61.30;97680.72;4484557;32;20101;-79
2021/12/01 04:16:58;;;;;;;1.30;0.80;;;;;;;6.85;61.72;97690.22;4484518;32;20140;-80
2021/12/01 04:19:23;;;;;;;1.50;0.77;;;;;;;6.81;61.75;97686.09;4485659;31;20092;-80
2021/12/01 04:21:48;;;;;;;2.80;0.80;;;;;;;6.87;61.41;97697.03;4484361;32;20085;-79
2021/12/01 04:24:14;;;;;;;2.28;0.90;;;;;;;6.75;62.05;97689.06;4484347;32;20100;-79
2021/12/01 04:26:40;;;;;;;2.17;0.90;;;;;;;6.79;61.83;97687.94;4484359;32;20127;-79
2021/12/01 04:29:06;;;;;;;2.80;0.80;;;;;;;6.68;62.25;97692.03;4485673;32;20143;-80
2021/12/01 04:31:33;;;;;;;2.37;0.80;;;;;;;6.46;62.58;97697.59;4487739;31;20145;-80
2021/12/01 04:34:00;;;;;;;2.03;0.85;;;;;;;6.50;62.63;97699.13;4487912;31;20104;-80
2021/12/01 04:36:28;;;;;;;2.07;0.90;;;;;;;6.50;62.96;97700.91;4487906;31;20372;-80
2021/12/01 04:38:53;;;;;;;1.77;0.80;;;;;;;6.70;62.25;97718.09;4486829;32;20089;-81
2021/12/01 04:41:21;;;;;;;1.48;0.80;;;;;;;6.88;61.78;97727.53;4486746;32;20076;-80
2021/12/01 04:43:47;;;;;;;;;;;;;;;7.02;61.17;97725.91;4487010;32;20134;-80
2021/12/01 04:46:16;;;;;;;2.22;0.80;;;;;;;6.85;61.49;97722.47;4485691;32;20006;-80
2021/12/01 04:48:42;;;;;;;3.47;0.90;;;;;;;7.14;60.66;97719.12;4473265;32;20155;-79
2021/12/01 04:51:07;;;;;;;3.95;1.00;;;;;;;6.61;62.45;97724.69;4487702;32;20056;-80
2021/12/01 04:53:33;;;;;;;1.85;0.85;;;;;;;6.43;62.82;97716.09;4473092;32;20119;-79
2021/12/01 04:55:58;;;;;;;3.65;1.23;;;;;;;6.61;62.34;97722.09;4487215;32;20105;-80
2021/12/01 04:58:24;;;;;;;2.62;0.90;;;;;;;6.33;63.29;97719.28;4487701;32;20106;-80
2021/12/01 05:00:49;;;;;;;2.65;1.00;;;;;;;6.33;63.40;97720.13;4487661;32;20150;-80
2021/12/01 05:03:15;;;;;;;2.17;0.98;;;;;;;6.32;63.46;97734.16;4487615;32;20108;-80
2021/12/01 05:05:40;;;;;;;3.28;1.35;;;;;;;6.16;64.30;97751.56;4487599;32;20119;-80
2021/12/01 05:08:05;;;;;;;2.80;1.08;;;;;;;6.37;63.34;97732.09;4487500;32;20083;-79
2021/12/01 05:10:31;;;;;;;1.70;0.80;;;;;;;6.33;63.63;97753.28;4487542;32;20069;-80
2021/12/01 05:12:56;;;;;;;2.78;0.88;;;;;;;6.14;64.17;97761.28;4487493;32;20364;-79
2021/12/01 05:15:22;;;;;;;1.40;0.90;;;;;;;6.26;64.06;97755.41;4487553;32;20127;-79
2021/12/01 05:17:49;;;;;;;2.53;0.90;;;;;;;6.42;64.01;97761.50;4473182;32;20104;-79
2021/12/01 05:20:15;;;;;;;3.78;1.05;;;;;;;6.57;63.47;97757.19;4487569;32;20107;-78
2021/12/01 05:22:42;;;;;;;2.42;0.90;;;;;;;6.60;63.51;97764.88;4487536;32;20431;-79
2021/12/01 05:25:08;;;;;;;4.32;1.15;;;;;;;6.41;64.17;97770.28;4487629;32;20682;-80
2021/12/01 05:27:34;;;;;;;5.07;1.40;;;;;;;6.72;63.41;97767.75;4487567;32;20156;-80
2021/12/01 05:29:59;;;;;;;5.47;0.95;;;;;;;6.63;63.85;97784.81;4473323;32;20099;-80
2021/12/01 05:32:25;;;;;;;3.35;1.15;;;;;;;6.74;63.90;97787.69;4487167;32;20096;-79
2021/12/01 05:34:51;;;;;;;3.78;1.15;;;;;;;6.96;63.23;97796.97;4487432;32;20088;-79
2021/12/01 05:37:16;;;;;;;3.05;1.10;;;;;;;7.02;63.26;97807.09;4487367;32;20340;-78
2021/12/01 05:39:44;;;;;;;3.15;1.10;;;;;;;6.81;63.95;97817.81;4486845;32;20077;-79
2021/12/01 05:42:12;;;;;;;2.65;1.10;;;;;;;7.07;63.50;97813.75;4487381;32;20096;-79
2021/12/01 05:44:38;;;;;;;5.15;1.60;;;;;;;7.18;63.24;97812.31;4473281;32;20088;-79
2021/12/01 05:47:04;;;;;;;4.28;1.20;;;;;;;7.15;63.13;97831.66;4487313;32;20107;-79
2021/12/01 05:49:30;;;;;;;4.32;1.40;;;;;;;7.40;62.52;97833.75;4487438;32;20077;-79
2021/12/01 05:51:55;;;;;;;4.93;1.45;;;;;;;7.42;62.51;97837.13;4487151;32;20459;-80
2021/12/01 05:54:20;;;;;;;4.30;1.50;;;;;;;7.53;62.07;97846.97;4474322;31;20088;-78
2021/12/01 05:56:46;;;;;;;4.12;1.30;;;;;;;7.53;61.97;97846.13;4486672;32;20115;-87
2021/12/01 05:59:12;;;;;;;3.08;1.27;;;;;;;7.49;62.33;97834.97;4473735;32;20092;-78
2021/12/01 06:01:37;;;;;;;3.40;1.20;;;;;;;7.28;62.49;97834.41;4487188;32;20156;-78
2021/12/01 06:04:03;;;;;;;3.58;1.48;;;;;;;7.33;62.26;97837.63;4472800;32;20108;-78
2021/12/01 06:06:29;;;;;;;5.30;1.42;;;;;;;7.51;61.70;97848.84;4487129;32;20108;-78
2021/12/01 06:08:55;;;;;;;6.68;1.92;;;;;;;7.57;61.62;97842.41;4487159;32;20080;-76
2021/12/01 06:11:22;;;;;;;4.68;1.40;;;;;;;7.63;61.26;97853.41;4472996;32;20476;-76
2021/12/01 06:13:50;;;;;;;4.12;1.30;;;;;;;7.73;61.14;97848.47;4472929;32;20160;-76
2021/12/01 06:16:21;;;;;;;4.82;1.52;;;;;;;7.59;61.64;97856.25;4487416;32;20156;-76
2021/12/01 06:18:47;;;;;;;4.95;1.60;;;;;;;7.83;60.92;97860.09;4473273;32;20107;-76
2021/12/01 06:21:13;;;;;;;5.80;2.00;;;;;;;7.76;61.23;97871.03;4487328;32;20100;-76
2021/12/01 06:23:39;;;;;;;4.85;1.50;;;;;;;7.73;61.24;97881.72;4487338;32;20118;-76
2021/12/01 06:26:04;;;;;;;4.57;1.55;;;;;;;7.92;60.99;97876.22;4487336;32;20114;-76
2021/12/01 06:28:30;;;;;;;5.18;1.35;;;;;;;7.92;60.91;97895.44;4473019;32;20133;-76
2021/12/01 06:30:55;;;;;;;5.43;1.58;;;;;;;7.99;60.67;97888.03;4487078;32;20080;-76
2021/12/01 06:33:21;;;;;;;4.53;1.50;;;;;;;7.91;60.72;97903.38;4472635;32;20103;-76
2021/12/01 06:35:49;;;;;;;6.50;1.77;;;;;;;7.95;60.59;97902.28;4486927;32;20096;-76
2021/12/01 06:38:16;;;;;;;6.12;1.87;;;;;;;7.93;60.60;97906.75;4472596;32;20451;-76
2021/12/01 06:40:42;;;;;;;5.47;1.73;;;;;;;8.13;60.22;97902.97;4472875;32;20112;-76
2021/12/01 06:43:07;;;;;;;4.43;1.70;;;;;;;8.11;60.15;97913.53;4487255;32;20101;-77
2021/12/01 06:45:33;;;;;;;4.32;1.58;;;;;;;8.19;59.71;97918.34;4472717;32;20471;-75
2021/12/01 06:47:58;;;;;;;4.65;1.62;;;;;;;7.96;60.50;97925.78;4486792;32;20076;-76
2021/12/01 06:50:23;;;;;;;7.47;1.70;;;;;;;7.95;60.47;97915.38;4486100;32;20092;-76
2021/12/01 06:52:49;;;;;;;4.05;1.52;;;;;;;8.13;60.09;97913.47;4486209;32;20109;-76
2021/12/01 06:55:15;;;;;;;5.90;1.77;;;;;;;8.29;59.89;97909.00;4472596;32;20359;-76
2021/12/01 06:57:40;;;;;;;4.97;1.40;;;;;;;8.28;59.61;97915.19;4486765;32;20432;-76
2021/12/01 07:00:09;;;;;;;5.47;1.80;;;;;;;7.93;60.58;97915.47;4471489;32;20104;-74
2021/12/01 07:02:34;;;;;;;5.50;1.70;;;;;;;8.17;60.00;97912.34;4482119;31;20134;-76
2021/12/01 07:05:00;;;;;;;4.65;1.60;;;;;;;8.21;60.14;97911.25;4501852;31;20154;-75
2021/12/01 07:07:25;;;;;;;4.43;1.50;;;;;;;8.30;59.92;97910.69;4487879;31;20092;-75
2021/12/01 07:09:51;;;;;;;7.12;1.83;;;;;;;8.25;60.07;97920.63;4501168;31;20140;-76
2021/12/01 07:12:17;;;;;;;5.37;1.90;;;;;;;8.22;60.01;97913.75;4502176;31;20392;-77
2021/12/01 07:14:42;;;;;;;6.07;1.70;;;;;;;8.33;59.68;97915.75;4502243;31;20109;-75
2021/12/01 07:17:08;;;;;;;5.28;2.00;;;;;;;8.47;59.59;97912.34;4501829;31;20127;-76
2021/12/01 07:19:34;;;;;;;5.25;1.70;;;;;;;8.35;59.71;97915.69;4502033;31;20080;-75
2021/12/01 07:21:59;;;;;;;6.28;2.35;;;;;;;8.44;59.49;97912.50;4502319;31;20229;-76
2021/12/01 07:24:25;;;;;;;5.40;1.87;;;;;;;8.48;59.51;97915.81;4482157;32;20136;-76
2021/12/01 07:26:51;;;;;;;6.07;1.70;;;;;;;8.50;59.23;97911.31;4497769;31;20148;-76
2021/12/01 07:29:17;;;;;;;6.25;1.80;;;;;;;8.50;59.20;97909.53;4501309;31;20096;-75
2021/12/01 07:31:43;;;;;;;4.72;1.70;;;;;;;8.60;58.60;97894.91;4501748;31;20151;-76
2021/12/01 07:34:08;;;;;;;5.45;1.70;;;;;;;8.47;58.99;97883.47;4501964;31;20095;-75
2021/12/01 07:36:34;;;;;;;6.18;1.95;;;;;;;8.30;58.82;97876.56;4487434;31;20121;-75
2021/12/01 07:39:00;;;;;;;4.60;1.40;;;;;;;8.54;58.36;97873.47;4501897;31;20169;-76
2021/12/01 07:41:26;;;;;;;6.45;1.80;;;;;;;8.55;58.55;97883.84;4501489;31;20343;-76
2021/12/01 07:43:51;;;;;;;3.83;1.20;;;;;;;8.49;58.70;97893.88;4484562;31;20404;-76
2021/12/01 07:46:17;;;;;;;4.00;1.30;;;;;;;8.50;58.98;97900.81;4485953;32;20121;-76
2021/12/01 07:48:42;;;;;;;5.50;1.45;;;;;;;8.68;58.94;97894.44;4485950;31;20093;-76
2021/12/01 07:51:08;;;;;;;5.05;1.50;;;;;;;8.74;58.86;97893.22;4485841;32;20147;-75
2021/12/01 07:53:33;;;;;;;6.05;1.60;;;;;;;8.73;58.72;97888.91;4471106;32;20080;-77
2021/12/01 07:56:01;;;;;;;5.75;1.62;;;;;;;8.71;59.09;97896.91;4484179;31;20391;-76
2021/12/01 07:58:26;;;;;;;3.80;1.30;;;;;;;8.81;59.60;97895.38;4485895;31;20117;-77
2021/12/01 08:00:52;;;;;;;4.05;1.50;;;;;;;8.85;59.40;97889.00;4485710;31;20344;-76
2021/12/01 08:03:17;;;;;;;4.70;1.42;;;;;;;8.97;59.57;97891.81;4487217;32;20072;-75
2021/12/01 08:05:42;;;;;;;5.32;1.50;;;;;;;8.91;59.74;97890.41;4487570;32;20080;-76
2021/12/01 08:08:10;;;;;;;4.87;1.50;;;;;;;8.92;59.96;97891.25;4473679;32;20187;-77
2021/12/01 08:10:35;;;;;;;4.55;1.48;;;;;;;8.94;60.11;97890.19;4487892;32;20100;-75
2021/12/01 08:13:01;;;;;;;3.83;1.50;;;;;;;9.09;59.86;97896.28;4473605;32;20114;-76
2021/12/01 08:15:27;;;;;;;5.20;1.75;;;;;;;9.08;60.02;97889.34;4488133;32;20103;-76
2021/12/01 08:17:53;;;;;;;5.37;1.60;;;;;;;9.19;60.08;97888.66;4473403;32;20156;-75
2021/12/01 08:20:20;;;;;;;4.68;1.60;;;;;;;8.96;60.78;97879.59;4488106;32;20118;-74
2021/12/01 08:22:46;;;;;;;5.37;1.48;;;;;;;8.94;61.00;97887.56;4473814;32;20084;-76
2021/12/01 08:25:12;;;;;;;4.80;1.40;;;;;;;8.63;62.29;97883.38;4488134;32;20317;-76
2021/12/01 08:27:37;;;;;;;2.65;1.15;;;;;;;8.78;62.31;97879.81;4473733;32;20139;-75
2021/12/01 08:30:04;;;;;;;4.05;1.40;;;;;;;8.59;62.36;97868.75;4473475;32;20105;-76
2021/12/01 08:32:30;;;;;;;4.67;1.20;;;;;;;8.93;62.00;97861.44;4473624;32;20110;-75
2021/12/01 08:34:55;;;;;;;3.00;1.00;;;;;;;8.75;62.32;97859.00;4487834;32;20340;-75
2021/12/01 08:37:21;;;;;;;2.55;1.00;;;;;;;9.07;61.64;97864.00;4473607;32;20093;-76
2021/12/01 08:39:48;;;;;;;2.33;0.90;;;;;;;9.05;61.83;97852.75;4473330;32;20127;-76
2021/12/01 08:42:15;;;;;;;3.03;1.00;;;;;;;9.13;61.58;97853.09;4487096;32;20107;-75
2021/12/01 08:44:47;;;;;;;2.78;0.85;;;;;;;9.31;nan;97842.34;4483700;31;20149;-74
2021/12/01 08:47:14;;;;;;;4.37;1.20;;;;;;;9.23;61.98;97862.13;4486423;31;20119;-76
2021/12/01 08:49:39;;;;;;;3.27;1.07;;;;;;;9.18;62.33;97869.44;4503237;31;20092;-73
2021/12/01 08:52:05;;;;;;;3.55;1.20;;;;;;;9.34;61.95;97868.47;4502681;31;20212;-76
2021/12/01 08:54:31;;;;;;;4.72;1.60;;;;;;;9.28;62.20;97866.22;4503415;31;20072;-76
2021/12/01 08:56:57;;;;;;;4.07;1.23;;;;;;;9.53;61.97;97879.47;4489130;31;20417;-76
2021/12/01 08:59:23;;;;;;;4.43;1.33;;;;;;;9.64;61.07;97874.34;4503435;31;20115;-76
2021/12/01 09:01:49;;;;;;;3.92;1.20;;;;;;;9.56;60.87;97873.16;4503647;31;20115;-77
2021/12/01 09:04:14;;;;;;;5.00;1.30;;;;;;;9.70;60.70;97870.47;4489403;31;20103;-76
2021/12/01 09:06:40;;;;;;;5.72;1.55;;;;;;;9.62;61.16;97870.16;4503709;31;20465;-77
2021/12/01 09:09:05;;;;;;;5.45;1.42;;;;;;;9.79;60.58;97858.50;4503729;31;20102;-77
2021/12/01 09:11:30;;;;;;;4.75;1.50;;;;;;;9.70;60.58;97856.50;4503574;31;20411;-77
2021/12/01 09:13:56;;;;;;;4.03;1.67;;;;;;;9.78;60.35;97852.41;4502959;31;20513;-77
2021/12/01 09:16:22;;;;;;;4.62;1.65;;;;;;;9.71;60.78;97847.66;4503541;31;20092;-77
2021/12/01 09:18:47;;;;;;;5.45;1.50;;;;;;;9.77;60.29;97861.25;4503668;31;20076;-77
2021/12/01 09:21:13;;;;;;;5.35;1.52;;;;;;;9.83;60.43;97850.31;4488976;31;20114;-77
2021/12/01 09:23:39;;;;;;;4.62;1.60;;;;;;;9.93;60.17;97855.81;4503246;31;20068;-77
2021/12/01 09:26:04;;;;;;;5.35;1.65;;;;;;;10.10;59.82;97851.19;4503363;31;20076;-77
2021/12/01 09:28:30;;;;;;;4.72;1.77;;;;;;;10.21;59.95;97854.78;4503311;31;20092;-77
2021/12/01 09:30:57;;;;;;;5.55;1.55;;;;;;;10.26;59.68;97857.09;4503254;31;20111;-77
2021/12/01 09:33:24;;;;;;;6.12;1.77;;;;;;;10.21;59.81;97848.66;4488986;31;20067;-77
2021/12/01 09:35:51;;;;;;;4.75;1.73;;;;;;;10.31;59.46;97841.03;4489047;31;20168;-77
2021/12/01 09:38:18;;;;;;;5.97;1.63;;;;;;;10.50;59.22;97838.78;4489226;31;20169;-77
2021/12/01 09:40:47;;;;;;;7.10;1.62;;;;;;;10.74;58.58;97836.25;4503225;31;20139;-77
2021/12/01 09:43:13;;;;;;;5.80;1.70;;;;;;;10.75;58.65;97830.03;4488857;31;20143;-77
2021/12/01 09:45:39;;;;;;;5.47;1.40;;;;;;;10.91;58.93;97831.56;4503141;31;20121;-77
2021/12/01 09:48:05;;;;;;;3.97;1.20;;;;;;;11.10;58.68;97831.09;4488841;31;20096;-77
2021/12/01 09:50:30;;;;;;;4.00;1.23;;;;;;;10.91;59.03;97845.56;4488773;31;20136;-77
2021/12/01 09:52:55;;;;;;;8.15;1.42;;;;;;;11.22;58.49;97830.19;4475296;31;20110;-77
2021/12/01 09:55:21;;;;;;;5.70;1.50;;;;;;;11.30;57.97;97812.06;4503118;31;20398;-77
2021/12/01 09:58:11;;;;;;;5.15;1.40;;;;;;;11.39;57.58;97810.50;4503202;31;20352;-77
2021/12/01 10:00:39;;;;;;;6.22;1.45;;;;;;;11.57;57.39;97793.34;4488898;31;20406;-77
2021/12/01 10:03:05;;;;;;;4.20;1.40;;;;;;;11.64;56.01;97798.16;4503384;31;20476;-77
2021/12/01 10:06:03;;;;;;;6.30;1.70;;;;;;;11.61;56.25;97800.06;4488964;31;20100;-77
2021/12/01 10:08:33;;;;;;;4.22;1.40;;;;;;;11.89;56.07;97808.56;4422701;32;20101;-77
2021/12/01 10:10:59;;;;;;;4.32;1.42;;;;;;;11.93;56.51;97796.00;4422907;32;20136;-77
2021/12/01 10:13:30;;;;;;;5.47;1.60;;;;;;;11.97;56.01;97789.50;4410138;32;20070;-77
2021/12/01 10:15:58;;;;;;;5.70;1.40;;;;;;;11.95;55.84;97783.50;4410112;32;20098;-77
2021/12/01 10:18:25;;;;;;;5.32;1.50;;;;;;;12.05;55.69;97786.28;4397458;32;20109;-77
2021/12/01 10:20:59;;;;;;;5.35;1.58;;;;;;;12.22;55.24;97795.56;4410065;32;20292;-77
2021/12/01 10:23:24;;;;;;;4.90;1.83;;;;;;;12.17;54.71;97785.38;4422965;32;20172;-77
2021/12/01 10:25:50;;;;;;;5.68;1.90;;;;;;;12.10;55.51;97795.53;4409948;32;20129;-77
2021/12/01 10:28:36;;;;;;;7.43;2.33;;;;;;;12.13;55.54;97799.72;4423034;32;20093;-77
2021/12/01 10:31:02;;;;;;;9.95;3.25;;;;;;;12.13;55.60;97797.09;4410306;32;20125;-78
2021/12/01 10:33:29;;;;;;;10.65;3.25;;;;;;;12.07;55.83;97797.56;4409930;32;20143;-78
2021/12/01 10:35:57;;;;;;;8.05;2.95;;;;;;;12.00;55.99;97798.03;4422630;32;20114;-78
2021/12/01 10:38:32;;;;;;;7.12;2.92;;;;;;;12.07;55.67;97793.16;4409910;32;20452;-77
2021/12/01 10:41:03;;;;;;;9.52;2.90;;;;;;;12.06;55.14;97798.53;4422726;32;20406;-78
2021/12/01 10:43:42;;;;;;;7.60;2.70;;;;;;;12.16;54.12;97788.94;4409816;32;20104;-78
2021/12/01 10:46:14;;;;;;;7.35;2.62;;;;;;;12.23;53.58;97787.53;4494100;31;20115;-77
2021/12/01 10:48:43;;;;;;;7.68;2.65;;;;;;;12.17;53.39;97793.28;4502696;31;20156;-78
2021/12/01 10:51:13;;;;;;;10.90;3.22;;;;;;;11.88;53.86;97791.03;4499904;31;84150;-77
2021/12/01 10:53:39;;;;;;;11.38;2.45;;;;;;;12.06;52.85;97791.47;4488139;31;20454;-77
2021/12/01 10:56:06;;;;;;;11.77;3.25;;;;;;;12.08;52.40;97794.00;4488345;31;20459;-77
2021/12/01 10:58:37;;;;;;;8.93;2.78;;;;;;;12.04;52.59;97789.91;4488323;31;20124;-78
2021/12/01 11:01:04;;;;;;;10.32;3.03;;;;;;;11.58;52.81;97779.19;4488277;31;20119;-78
2021/12/01 11:03:32;;;;;;;10.73;3.27;;;;;;;11.90;51.88;97761.91;4502761;31;20106;-77
2021/12/01 11:06:20;;;;;;;11.48;3.53;;;;;;;11.91;51.14;97753.88;4488275;31;20247;-78
2021/12/01 11:08:48;;;;;;;9.25;2.78;;;;;;;11.90;50.51;97757.50;4488761;31;20187;-78
2021/12/01 11:11:16;;;;;;;8.68;2.92;;;;;;;11.76;49.90;97774.34;4502596;31;20091;-78
2021/12/01 11:13:44;;;;;;;8.63;3.10;;;;;;;11.71;50.25;97773.84;4502254;31;20084;-78
2021/12/01 11:16:10;;;;;;;8.02;2.47;;;;;;;11.84;49.87;97764.97;4502467;31;20089;-78
2021/12/01 11:18:39;;;;;;;10.77;3.03;;;;;;;11.83;49.21;97750.13;4488039;31;20106;-78
2021/12/01 11:21:16;;;;;;;9.65;2.90;;;;;;;11.99;49.43;97742.72;4487959;31;20151;-78
2021/12/01 11:23:48;;;;;;;9.85;3.12;;;;;;;12.10;49.09;97734.81;4502347;31;20102;-77
2021/12/01 11:26:19;;;;;;;10.95;3.50;;;;;;;12.21;48.57;97734.00;4502374;31;20072;-78
2021/12/01 11:28:46;;;;;;;9.35;3.00;;;;;;;12.26;48.62;97739.75;4502248;31;20715;-78
2021/12/01 11:31:17;;;;;;;11.23;3.50;;;;;;;12.24;48.52;97730.28;4487935;31;20092;-78
2021/12/01 11:33:44;;;;;;;10.60;3.10;;;;;;;12.34;48.58;97723.28;4502092;31;20106;-78
2021/12/01 11:36:12;;;;;;;10.27;3.42;;;;;;;12.38;48.22;97716.81;4502134;31;20149;-77
2021/12/01 11:38:38;;;;;;;9.90;3.40;;;;;;;12.46;47.85;97701.22;4503792;31;20467;-78
2021/12/01 11:41:06;;;;;;;10.43;3.35;;;;;;;12.37;48.10;97694.84;4504095;31;20088;-78